University of Arkansas, Arkansas
Current Conditions -  °F | °C
As of 3:53 PM on Tuesday 21 Oct 2014 (Local Time) from KLLQ Reporting Station
Few Clouds Few Clouds  
Wind Chill: 79°   Ceiling: Unl
Heat Index: 80°   Visibility: 10mi
Dew Point: 55°   Wind: 0mph
Humidity: 44%   Direction: NA
Pressure: 30.03"   Gusts: NA
Location:  33.6289°N, 91.7906°W
Report Text: KLLQ 212053Z AUTO 00000KT 10SM FEW046 26/13 A3003 RMK AO2 SLP166 T02610128 56018
Loading
Personal Weather Stations






























Interactive Weather Map
Tropical Storm Tracking
New forecast layout! Learn more

10-Day Weather Forecast

Advertisements
Track Severe Weather on mobile